< Typhoon 197501 1975 Season Typhoon 197503 >
Typhoon 197502 (MAMIE)
General InformationTrack Information on Google Maps || Disaster Info.ResourceGoogle EarthGE AnimationAtom FeedGeoJSON
Detalied Best Track (Time Zone = UTC)
Year Month Day Hour Lat. Long. Pressure (hPa) Wind (kt) Class Image Chart
1975 7 24 06 17.5 143.4 1008 0 2 -- Chart
1975 7 24 12 18.2 144.0 1008 0 2 -- Chart
1975 7 24 18 18.5 144.4 1008 0 2 -- Chart
1975 7 25 00 18.8 144.6 1010 0 2 -- Chart
1975 7 25 06 19.4 144.8 1008 0 2 -- Chart
1975 7 25 12 20.0 145.0 1008 0 2 -- Chart
1975 7 25 18 20.4 144.5 1008 0 2 -- Chart
1975 7 26 00 20.6 144.2 1004 0 2 -- Chart
1975 7 26 06 20.9 143.7 1000 0 2 -- Chart
1975 7 26 12 21.4 143.3 1000 0 2 -- Chart
1975 7 26 18 22.1 142.9 1002 0 2 -- Chart
1975 7 27 00 22.5 142.5 1002 0 2 -- Chart
1975 7 27 06 22.9 141.8 998 0 2 -- Chart
1975 7 27 12 23.7 141.0 994 0 2 -- Chart
1975 7 27 18 24.4 140.2 994 0 9 -- Chart
1975 7 28 00 24.7 139.0 994 0 9 -- Chart
1975 7 28 06 25.0 138.0 996 0 9 -- Chart
1975 7 28 12 25.6 136.7 996 0 9 -- Chart
1975 7 28 18 25.9 135.2 996 0 9 -- Chart
1975 7 29 00 26.5 133.8 998 0 9 -- Chart
1975 7 29 06 27.3 133.0 998 0 9 -- Chart
1975 7 29 12 27.8 132.5 998 0 9 -- Chart
1975 7 29 18 29.0 131.7 998 0 9 -- Chart
1975 7 30 00 30.8 130.4 994 0 9 -- Chart
1975 7 30 06 32.3 128.7 992 0 9 -- Chart
1975 7 30 12 33.6 126.8 998 0 2 -- Chart
1975 7 30 18 35.0 125.0 998 0 2 -- Chart
Japan Meteorological Agency Best Track Data | Correction Date : 1989-06-01
< Typhoon 197501 1975 Season Typhoon 197503 >

Help